sensor_id;sensor_type;location;lat;lon;timestamp;pressure;altitude;pressure_sealevel;temperature;humidity
49055;BME280;35405;52.344;14.530;2023-04-10T04:51:11;101636.03;;;1.40;100.00
49055;BME280;35405;52.344;14.530;2023-04-10T04:53:36;101638.06;;;1.44;100.00
49055;BME280;35405;52.344;14.530;2023-04-10T04:56:01;101638.06;;;1.57;100.00
49055;BME280;35405;52.344;14.530;2023-04-10T04:58:27;101636.59;;;1.68;100.00
49055;BME280;35405;52.344;14.530;2023-04-10T05:00:52;101633.50;;;1.78;100.00
49055;BME280;35405;52.344;14.530;2023-04-10T05:03:18;101639.09;;;1.70;100.00
49055;BME280;35405;52.344;14.530;2023-04-10T05:05:43;101623.78;;;1.77;100.00
49055;BME280;35405;52.344;14.530;2023-04-10T05:08:09;101625.84;;;1.88;100.00
49055;BME280;35405;52.344;14.530;2023-04-10T05:10:34;101633.69;;;1.90;100.00
49055;BME280;35405;52.344;14.530;2023-04-10T05:13:00;101635.09;;;1.92;100.00
49055;BME280;35405;52.344;14.530;2023-04-10T05:15:25;101631.56;;;2.05;100.00
49055;BME280;35405;52.344;14.530;2023-04-10T05:17:50;101637.72;;;2.12;100.00
49055;BME280;35405;52.344;14.530;2023-04-10T05:20:17;101632.16;;;2.20;100.00
49055;BME280;35405;52.344;14.530;2023-04-10T05:22:42;101633.16;;;2.26;100.00
49055;BME280;35405;52.344;14.530;2023-04-10T05:25:08;101635.97;;;2.44;100.00
49055;BME280;35405;52.344;14.530;2023-04-10T05:27:33;101628.44;;;2.60;100.00
49055;BME280;35405;52.344;14.530;2023-04-10T05:29:58;101628.84;;;2.63;100.00
49055;BME280;35405;52.344;14.530;2023-04-10T05:32:24;101629.16;;;2.73;100.00
49055;BME280;35405;52.344;14.530;2023-04-10T05:34:49;101632.84;;;2.79;100.00
49055;BME280;35405;52.344;14.530;2023-04-10T05:37:47;101624.72;;;2.92;100.00
49055;BME280;35405;52.344;14.530;2023-04-10T05:43:41;101625.63;;;3.11;100.00
49055;BME280;35405;52.344;14.530;2023-04-10T05:49:00;101644.78;;;3.47;100.00
49055;BME280;35405;52.344;14.530;2023-04-10T05:51:26;101647.56;;;3.58;100.00
49055;BME280;35405;52.344;14.530;2023-04-10T05:53:51;101641.16;;;3.78;100.00
49055;BME280;35405;52.344;14.530;2023-04-10T05:56:16;101637.81;;;3.82;100.00
49055;BME280;35405;52.344;14.530;2023-04-10T06:01:20;101629.81;;;3.94;100.00
49055;BME280;35405;52.344;14.530;2023-04-10T06:03:46;101629.31;;;4.04;100.00
49055;BME280;35405;52.344;14.530;2023-04-10T06:06:11;101636.31;;;4.05;100.00
49055;BME280;35405;52.344;14.530;2023-04-10T06:08:55;101635.28;;;4.24;100.00
49055;BME280;35405;52.344;14.530;2023-04-10T06:11:21;101630.16;;;4.34;100.00
49055;BME280;35405;52.344;14.530;2023-04-10T06:13:49;101635.75;;;4.33;100.00
49055;BME280;35405;52.344;14.530;2023-04-10T06:16:20;101640.41;;;4.44;100.00
49055;BME280;35405;52.344;14.530;2023-04-10T06:18:45;101634.94;;;4.32;100.00
49055;BME280;35405;52.344;14.530;2023-04-10T06:21:11;101639.53;;;4.13;100.00
49055;BME280;35405;52.344;14.530;2023-04-10T06:23:37;101635.34;;;4.18;100.00
49055;BME280;35405;52.344;14.530;2023-04-10T06:26:02;101636.47;;;4.28;100.00
49055;BME280;35405;52.344;14.530;2023-04-10T06:28:28;101632.50;;;4.31;100.00
49055;BME280;35405;52.344;14.530;2023-04-10T06:31:01;101630.91;;;4.42;100.00
49055;BME280;35405;52.344;14.530;2023-04-10T06:33:29;101626.72;;;4.46;100.00
49055;BME280;35405;52.344;14.530;2023-04-10T06:36:00;101631.91;;;4.59;100.00
49055;BME280;35405;52.344;14.530;2023-04-10T06:38:28;101627.03;;;4.68;100.00
49055;BME280;35405;52.344;14.530;2023-04-10T06:40:53;101622.41;;;4.87;100.00
49055;BME280;35405;52.344;14.530;2023-04-10T06:43:26;101621.75;;;5.03;100.00
49055;BME280;35405;52.344;14.530;2023-04-10T06:46:03;101613.78;;;5.20;100.00
49055;BME280;35405;52.344;14.530;2023-04-10T06:48:29;101608.53;;;5.37;100.00
49055;BME280;35405;52.344;14.530;2023-04-10T06:50:54;101605.13;;;5.65;100.00
49055;BME280;35405;52.344;14.530;2023-04-10T06:53:20;101605.84;;;5.72;100.00
49055;BME280;35405;52.344;14.530;2023-04-10T06:55:45;101603.69;;;5.98;100.00
49055;BME280;35405;52.344;14.530;2023-04-10T06:58:11;101606.25;;;6.04;100.00
49055;BME280;35405;52.344;14.530;2023-04-10T07:00:37;101603.94;;;6.08;100.00
49055;BME280;35405;52.344;14.530;2023-04-10T07:03:03;101606.63;;;6.08;100.00
49055;BME280;35405;52.344;14.530;2023-04-10T07:05:28;101606.16;;;6.11;100.00
49055;BME280;35405;52.344;14.530;2023-04-10T07:07:54;101608.25;;;6.09;100.00
49055;BME280;35405;52.344;14.530;2023-04-10T07:10:19;101603.53;;;6.16;100.00
49055;BME280;35405;52.344;14.530;2023-04-10T07:12:45;101605.06;;;6.24;100.00
49055;BME280;35405;52.344;14.530;2023-04-10T07:15:10;101599.03;;;6.33;100.00
49055;BME280;35405;52.344;14.530;2023-04-10T07:17:36;101599.78;;;6.46;100.00
49055;BME280;35405;52.344;14.530;2023-04-10T07:20:02;101599.09;;;6.50;100.00
49055;BME280;35405;52.344;14.530;2023-04-10T07:22:27;101601.25;;;6.65;100.00
49055;BME280;35405;52.344;14.530;2023-04-10T07:24:53;101595.16;;;6.58;100.00
49055;BME280;35405;52.344;14.530;2023-04-10T07:27:18;101604.19;;;6.63;100.00
49055;BME280;35405;52.344;14.530;2023-04-10T07:29:44;101600.94;;;6.78;100.00
49055;BME280;35405;52.344;14.530;2023-04-10T07:38:24;101603.19;;;6.98;100.00
49055;BME280;35405;52.344;14.530;2023-04-10T07:40:55;101601.22;;;7.27;100.00
49055;BME280;35405;52.344;14.530;2023-04-10T07:43:21;101611.31;;;7.32;100.00
49055;BME280;35405;52.344;14.530;2023-04-10T07:45:46;101603.91;;;7.61;100.00
49055;BME280;35405;52.344;14.530;2023-04-10T07:48:12;101603.34;;;7.81;100.00
49055;BME280;35405;52.344;14.530;2023-04-10T08:17:13;101626.34;;;8.93;100.00
49055;BME280;35405;52.344;14.530;2023-04-10T08:22:52;101625.13;;;9.44;100.00
49055;BME280;35405;52.344;14.530;2023-04-10T08:25:36;101623.84;;;9.19;100.00
49055;BME280;35405;52.344;14.530;2023-04-10T08:46:40;101673.91;;;9.33;100.00
49055;BME280;35405;52.344;14.530;2023-04-10T08:52:17;101664.09;;;10.07;100.00
49055;BME280;35405;52.344;14.530;2023-04-10T08:54:49;101679.84;;;10.05;100.00
49055;BME280;35405;52.344;14.530;2023-04-10T08:57:15;101689.41;;;9.70;100.00
49055;BME280;35405;52.344;14.530;2023-04-10T08:59:58;101696.22;;;9.73;100.00
49055;BME280;35405;52.344;14.530;2023-04-10T09:02:30;101704.31;;;9.68;100.00
49055;BME280;35405;52.344;14.530;2023-04-10T09:04:56;101697.41;;;9.87;100.00
49055;BME280;35405;52.344;14.530;2023-04-10T09:07:22;101703.06;;;9.80;100.00
49055;BME280;35405;52.344;14.530;2023-04-10T09:09:48;101711.34;;;9.96;100.00
49055;BME280;35405;52.344;14.530;2023-04-10T09:15:24;101717.69;;;10.17;100.00
49055;BME280;35405;52.344;14.530;2023-04-10T09:17:53;101711.06;;;9.97;100.00
49055;BME280;35405;52.344;14.530;2023-04-10T09:20:20;101715.19;;;10.10;100.00
49055;BME280;35405;52.344;14.530;2023-04-10T09:22:48;101714.38;;;10.10;100.00
49055;BME280;35405;52.344;14.530;2023-04-10T09:31:37;101708.81;;;9.89;100.00
49055;BME280;35405;52.344;14.530;2023-04-10T09:34:19;101707.13;;;10.25;100.00
49055;BME280;35405;52.344;14.530;2023-04-10T09:36:54;101699.97;;;10.57;100.00
49055;BME280;35405;52.344;14.530;2023-04-10T09:39:20;101711.34;;;10.48;100.00
49055;BME280;35405;52.344;14.530;2023-04-10T09:41:48;101702.44;;;10.63;100.00
49055;BME280;35405;52.344;14.530;2023-04-10T09:44:16;101706.53;;;10.66;100.00
49055;BME280;35405;52.344;14.530;2023-04-10T09:46:41;101700.25;;;10.60;100.00
49055;BME280;35405;52.344;14.530;2023-04-10T09:49:10;101704.22;;;10.37;100.00
49055;BME280;35405;52.344;14.530;2023-04-10T09:51:41;101698.88;;;10.58;100.00
49055;BME280;35405;52.344;14.530;2023-04-10T09:54:06;101692.44;;;10.84;100.00
49055;BME280;35405;52.344;14.530;2023-04-10T09:56:32;101694.94;;;11.01;100.00
49055;BME280;35405;52.344;14.530;2023-04-10T09:59:04;101696.03;;;11.05;100.00
49055;BME280;35405;52.344;14.530;2023-04-10T10:01:30;101689.72;;;10.94;100.00
49055;BME280;35405;52.344;14.530;2023-04-10T10:04:02;101696.22;;;10.73;100.00
49055;BME280;35405;52.344;14.530;2023-04-10T10:06:28;101686.38;;;10.57;100.00
49055;BME280;35405;52.344;14.530;2023-04-10T10:08:58;101692.66;;;10.62;100.00
49055;BME280;35405;52.344;14.530;2023-04-10T10:11:25;101683.97;;;10.65;100.00
49055;BME280;35405;52.344;14.530;2023-04-10T10:13:51;101677.19;;;10.88;100.00
49055;BME280;35405;52.344;14.530;2023-04-10T10:16:25;101670.63;;;10.69;100.00
49055;BME280;35405;52.344;14.530;2023-04-10T10:18:54;101662.44;;;10.64;100.00
49055;BME280;35405;52.344;14.530;2023-04-10T10:21:23;101657.09;;;10.89;100.00
49055;BME280;35405;52.344;14.530;2023-04-10T10:23:53;101660.34;;;11.07;100.00
49055;BME280;35405;52.344;14.530;2023-04-10T10:26:20;101654.34;;;10.99;100.00
49055;BME280;35405;52.344;14.530;2023-04-10T10:28:48;101667.97;;;11.10;100.00
49055;BME280;35405;52.344;14.530;2023-04-10T10:31:15;101665.81;;;11.02;100.00
49055;BME280;35405;52.344;14.530;2023-04-10T10:34:00;101661.44;;;11.16;100.00
49055;BME280;35405;52.344;14.530;2023-04-10T10:36:50;101659.84;;;11.35;100.00
49055;BME280;35405;52.344;14.530;2023-04-10T10:44:41;101659.50;;;11.78;100.00
49055;BME280;35405;52.344;14.530;2023-04-10T10:50:24;101648.91;;;11.71;100.00
49055;BME280;35405;52.344;14.530;2023-04-10T10:52:50;101649.22;;;11.24;100.00
49055;BME280;35405;52.344;14.530;2023-04-10T10:57:49;101645.63;;;10.77;100.00
49055;BME280;35405;52.344;14.530;2023-04-10T11:15:30;101608.59;;;10.71;100.00
49055;BME280;35405;52.344;14.530;2023-04-10T11:18:07;101599.34;;;10.72;100.00
49055;BME280;35405;52.344;14.530;2023-04-10T11:33:13;101571.84;;;11.50;100.00
49055;BME280;35405;52.344;14.530;2023-04-10T11:35:53;101572.09;;;11.54;100.00
49055;BME280;35405;52.344;14.530;2023-04-10T11:48:03;101564.09;;;11.88;100.00
49055;BME280;35405;52.344;14.530;2023-04-10T11:53:46;101560.41;;;12.18;100.00
49055;BME280;35405;52.344;14.530;2023-04-10T11:59:30;101550.50;;;12.38;100.00
49055;BME280;35405;52.344;14.530;2023-04-10T12:02:18;101541.41;;;12.52;100.00
49055;BME280;35405;52.344;14.530;2023-04-10T12:07:41;101533.09;;;13.02;100.00
49055;BME280;35405;52.344;14.530;2023-04-10T12:13:07;101518.44;;;12.93;100.00
49055;BME280;35405;52.344;14.530;2023-04-10T12:16:00;101515.19;;;12.91;100.00
49055;BME280;35405;52.344;14.530;2023-04-10T12:18:43;101505.78;;;13.02;100.00
49055;BME280;35405;52.344;14.530;2023-04-10T12:30:16;101507.03;;;13.44;100.00
49055;BME280;35405;52.344;14.530;2023-04-10T12:35:44;101502.28;;;13.55;100.00
49055;BME280;35405;52.344;14.530;2023-04-10T12:38:10;101502.13;;;13.65;100.00
49055;BME280;35405;52.344;14.530;2023-04-10T12:43:34;101477.47;;;13.70;100.00
49055;BME280;35405;52.344;14.530;2023-04-10T12:46:00;101483.50;;;13.91;100.00
49055;BME280;35405;52.344;14.530;2023-04-10T12:48:32;101472.47;;;14.15;100.00
49055;BME280;35405;52.344;14.530;2023-04-10T12:50:57;101483.44;;;14.15;100.00
49055;BME280;35405;52.344;14.530;2023-04-10T12:53:23;101479.63;;;14.11;100.00
49055;BME280;35405;52.344;14.530;2023-04-10T12:55:59;101475.22;;;13.96;100.00
49055;BME280;35405;52.344;14.530;2023-04-10T12:58:25;101470.34;;;13.93;100.00
49055;BME280;35405;52.344;14.530;2023-04-10T13:00:54;101470.25;;;13.98;100.00
49055;BME280;35405;52.344;14.530;2023-04-10T13:03:20;101460.28;;;14.07;100.00
49055;BME280;35405;52.344;14.530;2023-04-10T13:34:08;101415.91;;;14.29;100.00
49055;BME280;35405;52.344;14.530;2023-04-10T13:45:54;101405.69;;;14.68;100.00
49055;BME280;35405;52.344;14.530;2023-04-10T13:48:20;101390.66;;;14.51;100.00
49055;BME280;35405;52.344;14.530;2023-04-10T13:50:51;101388.25;;;14.63;100.00
49055;BME280;35405;52.344;14.530;2023-04-10T13:56:42;101383.22;;;14.84;100.00
49055;BME280;35405;52.344;14.530;2023-04-10T14:05:17;101368.47;;;14.67;100.00
49055;BME280;35405;52.344;14.530;2023-04-10T14:07:58;101359.56;;;14.89;100.00
49055;BME280;35405;52.344;14.530;2023-04-10T14:10:54;101351.88;;;15.04;100.00
49055;BME280;35405;52.344;14.530;2023-04-10T14:13:20;101351.94;;;15.27;100.00
49055;BME280;35405;52.344;14.530;2023-04-10T14:19:17;101347.16;;;15.46;100.00
49055;BME280;35405;52.344;14.530;2023-04-10T14:25:15;101339.50;;;14.93;100.00
49055;BME280;35405;52.344;14.530;2023-04-10T14:33:50;101324.41;;;14.49;100.00
49055;BME280;35405;52.344;14.530;2023-04-10T14:39:27;101318.41;;;14.33;100.00
49055;BME280;35405;52.344;14.530;2023-04-10T14:42:10;101314.34;;;14.31;100.00
49055;BME280;35405;52.344;14.530;2023-04-10T14:44:52;101296.13;;;14.26;100.00
49055;BME280;35405;52.344;14.530;2023-04-10T14:59:50;101269.56;;;14.40;100.00
49055;BME280;35405;52.344;14.530;2023-04-10T15:02:21;101277.13;;;14.62;100.00
49055;BME280;35405;52.344;14.530;2023-04-10T15:11:27;101272.63;;;14.39;100.00
49055;BME280;35405;52.344;14.530;2023-04-10T15:16:55;101267.00;;;14.16;100.00
49055;BME280;35405;52.344;14.530;2023-04-10T15:22:34;101261.31;;;13.99;100.00
49055;BME280;35405;52.344;14.530;2023-04-10T15:30:48;101248.31;;;14.05;100.00
49055;BME280;35405;52.344;14.530;2023-04-10T15:39:43;101228.56;;;14.08;100.00
49055;BME280;35405;52.344;14.530;2023-04-10T15:42:17;101216.53;;;14.09;100.00
49055;BME280;35405;52.344;14.530;2023-04-10T15:44:55;101217.16;;;14.19;100.00
49055;BME280;35405;52.344;14.530;2023-04-10T15:47:20;101211.97;;;14.32;100.00
49055;BME280;35405;52.344;14.530;2023-04-10T15:56:09;101201.66;;;14.70;100.00
49055;BME280;35405;52.344;14.530;2023-04-10T15:58:51;101196.97;;;14.84;100.00
49055;BME280;35405;52.344;14.530;2023-04-10T16:04:12;101188.63;;;14.53;100.00
49055;BME280;35405;52.344;14.530;2023-04-10T16:10:19;101171.56;;;14.15;100.00
49055;BME280;35405;52.344;14.530;2023-04-10T16:19:22;101170.06;;;13.62;100.00
49055;BME280;35405;52.344;14.530;2023-04-10T16:24:55;101155.50;;;13.34;100.00
49055;BME280;35405;52.344;14.530;2023-04-10T16:33:28;101141.13;;;13.29;100.00
49055;BME280;35405;52.344;14.530;2023-04-10T16:49:09;101118.25;;;13.57;100.00
49055;BME280;35405;52.344;14.530;2023-04-10T16:51:49;101108.31;;;13.61;100.00
49055;BME280;35405;52.344;14.530;2023-04-10T17:00:15;101107.78;;;13.45;100.00
49055;BME280;35405;52.344;14.530;2023-04-10T17:02:40;101107.59;;;13.42;100.00
49055;BME280;35405;52.344;14.530;2023-04-10T17:05:06;101092.69;;;13.34;100.00
49055;BME280;35405;52.344;14.530;2023-04-10T17:07:52;101099.63;;;13.26;100.00
49055;BME280;35405;52.344;14.530;2023-04-10T17:19:57;101083.97;;;12.62;100.00
49055;BME280;35405;52.344;14.530;2023-04-10T17:22:45;101085.16;;;12.37;100.00
49055;BME280;35405;52.344;14.530;2023-04-10T17:28:09;101071.09;;;12.05;100.00
49055;BME280;35405;52.344;14.530;2023-04-10T17:30:38;101074.22;;;11.94;100.00
49055;BME280;35405;52.344;14.530;2023-04-10T17:36:30;101068.41;;;11.76;100.00
49055;BME280;35405;52.344;14.530;2023-04-10T17:39:43;101079.47;;;11.61;100.00
49055;BME280;35405;52.344;14.530;2023-04-10T17:42:37;101065.84;;;11.61;100.00
49055;BME280;35405;52.344;14.530;2023-04-10T17:48:30;101060.00;;;11.49;100.00
49055;BME280;35405;52.344;14.530;2023-04-10T17:51:02;101047.25;;;11.44;100.00
49055;BME280;35405;52.344;14.530;2023-04-10T17:53:48;101044.69;;;11.29;100.00
49055;BME280;35405;52.344;14.530;2023-04-10T17:56:17;101049.63;;;11.21;100.00
49055;BME280;35405;52.344;14.530;2023-04-10T18:04:30;101044.94;;;10.98;100.00
49055;BME280;35405;52.344;14.530;2023-04-10T18:10:08;101037.75;;;10.83;100.00
49055;BME280;35405;52.344;14.530;2023-04-10T18:12:45;101033.66;;;10.81;100.00
49055;BME280;35405;52.344;14.530;2023-04-10T18:15:10;101030.09;;;10.85;100.00
49055;BME280;35405;52.344;14.530;2023-04-10T18:17:38;101023.56;;;10.86;100.00
49055;BME280;35405;52.344;14.530;2023-04-10T18:20:25;101021.16;;;10.80;100.00
49055;BME280;35405;52.344;14.530;2023-04-10T18:23:10;101027.16;;;10.76;100.00
49055;BME280;35405;52.344;14.530;2023-04-10T18:25:59;101025.56;;;10.70;100.00
49055;BME280;35405;52.344;14.530;2023-04-10T18:37:00;101012.44;;;10.43;100.00
49055;BME280;35405;52.344;14.530;2023-04-10T18:39:25;101001.34;;;10.35;100.00
49055;BME280;35405;52.344;14.530;2023-04-10T18:45:08;101000.69;;;10.08;100.00
49055;BME280;35405;52.344;14.530;2023-04-10T18:53:43;100991.81;;;9.88;100.00
49055;BME280;35405;52.344;14.530;2023-04-10T18:56:19;100981.28;;;9.76;100.00
49055;BME280;35405;52.344;14.530;2023-04-10T19:08:30;100958.50;;;9.67;100.00
49055;BME280;35405;52.344;14.530;2023-04-10T19:10:55;100964.19;;;9.70;100.00
49055;BME280;35405;52.344;14.530;2023-04-10T19:13:30;100958.75;;;9.70;100.00
49055;BME280;35405;52.344;14.530;2023-04-10T19:15:58;100963.09;;;9.71;100.00
49055;BME280;35405;52.344;14.530;2023-04-10T19:18:26;100968.00;;;9.64;100.00
49055;BME280;35405;52.344;14.530;2023-04-10T19:20:52;100964.50;;;9.58;100.00
49055;BME280;35405;52.344;14.530;2023-04-10T19:23:17;100950.19;;;9.48;100.00
49055;BME280;35405;52.344;14.530;2023-04-10T19:25:43;100951.00;;;9.43;100.00
49055;BME280;35405;52.344;14.530;2023-04-10T19:28:11;100951.56;;;9.35;100.00
49055;BME280;35405;52.344;14.530;2023-04-10T19:30:40;100951.56;;;9.35;100.00
49055;BME280;35405;52.344;14.530;2023-04-10T19:33:05;100942.91;;;9.33;100.00
49055;BME280;35405;52.344;14.530;2023-04-10T19:35:36;100932.56;;;9.35;100.00
49055;BME280;35405;52.344;14.530;2023-04-10T19:38:08;100930.94;;;9.34;100.00
49055;BME280;35405;52.344;14.530;2023-04-10T19:43:53;100932.34;;;9.21;100.00
49055;BME280;35405;52.344;14.530;2023-04-10T19:46:39;100924.22;;;9.21;100.00
49055;BME280;35405;52.344;14.530;2023-04-10T19:49:13;100918.47;;;9.23;100.00
49055;BME280;35405;52.344;14.530;2023-04-10T19:54:54;100913.88;;;9.23;100.00
49055;BME280;35405;52.344;14.530;2023-04-10T20:00:04;100909.53;;;9.22;100.00
49055;BME280;35405;52.344;14.530;2023-04-10T20:02:30;100907.94;;;9.16;100.00
